Time;durP1;ratioP1;P1;durP2;ratioP2;P2;SDS_P1;SDS_P2;PMS_P1;PMS_P2;Temp;Humidity;BMP_temperature;BMP_pressure;BME280_temperature;BME280_humidity;BME280_pressure;Samples;Min_cycle;Max_cycle;Signal;HPM_P1;HPM_P2
2024/04/07 00:01:24;;;;;;;11.10;2.10;;;20.30;99.90;;;;;;7283827;19;20506;-78
2024/04/07 00:03:50;;;;;;;13.00;2.60;;;20.30;99.90;;;;;;7284242;19;20196;-78
2024/04/07 00:06:16;;;;;;;8.87;2.70;;;20.30;99.90;;;;;;7282878;19;20272;-78
2024/04/07 00:08:41;;;;;;;10.10;2.47;;;20.30;99.90;;;;;;7282423;19;20212;-79
2024/04/07 00:11:07;;;;;;;12.23;2.60;;;20.30;99.90;;;;;;7282899;19;20210;-78
2024/04/07 00:13:33;;;;;;;11.73;2.20;;;20.30;99.90;;;;;;7299565;19;20204;-78
2024/04/07 00:16:00;;;;;;;9.87;2.77;;;20.30;99.90;;;;;;7293669;19;20191;-77
2024/04/07 00:18:25;;;;;;;13.40;2.50;;;20.20;99.90;;;;;;7283331;19;20193;-78
2024/04/07 00:21:05;;;;;;;9.80;2.40;;;20.20;99.90;;;;;;7282694;19;20794;-78
2024/04/07 00:23:31;;;;;;;9.43;2.17;;;20.20;99.90;;;;;;7284419;19;20184;-79
2024/04/07 00:25:58;;;;;;;10.10;2.30;;;20.10;99.90;;;;;;7282351;19;20672;-78
2024/04/07 00:28:24;;;;;;;9.40;2.63;;;20.10;99.90;;;;;;7283932;19;20202;-78
2024/04/07 00:30:50;;;;;;;10.83;3.00;;;20.00;99.90;;;;;;7280903;19;20200;-78
2024/04/07 00:33:16;;;;;;;13.10;2.90;;;20.10;99.90;;;;;;7282937;19;20299;-77
2024/04/07 00:35:55;;;;;;;11.23;2.60;;;20.00;99.90;;;;;;7282830;19;20212;-77
2024/04/07 00:38:21;;;;;;;13.30;2.83;;;19.90;99.90;;;;;;7281569;19;20193;-78
2024/04/07 00:40:47;;;;;;;10.50;2.40;;;19.90;99.90;;;;;;7280523;19;20191;-77
2024/04/07 00:43:13;;;;;;;8.40;2.30;;;19.60;99.90;;;;;;7281584;19;20188;-77
2024/04/07 00:45:38;;;;;;;8.53;2.10;;;19.60;99.90;;;;;;7282426;19;20209;-78
2024/04/07 00:48:06;;;;;;;10.50;2.37;;;19.60;99.90;;;;;;7288547;19;20195;-77
2024/04/07 00:50:34;;;;;;;10.23;2.53;;;19.60;99.90;;;;;;7303184;19;20195;-78
2024/04/07 00:53:01;;;;;;;12.87;2.37;;;19.60;99.90;;;;;;7283295;19;20187;-78
2024/04/07 00:55:31;;;;;;;11.17;2.30;;;19.60;99.90;;;;;;7281998;19;21198;-77
2024/04/07 00:57:57;;;;;;;12.30;2.40;;;19.40;99.90;;;;;;7281804;19;20187;-78
2024/04/07 01:00:27;;;;;;;10.97;2.23;;;19.40;99.90;;;;;;7282780;19;20227;-78
2024/04/07 01:02:54;;;;;;;8.53;2.47;;;19.30;99.90;;;;;;7282215;19;21220;-77
2024/04/07 01:05:20;;;;;;;7.37;1.70;;;19.30;99.90;;;;;;7281832;19;20185;-77
2024/04/07 01:07:47;;;;;;;7.83;1.90;;;19.20;99.90;;;;;;7281151;19;20190;-77
2024/04/07 01:10:12;;;;;;;9.43;2.30;;;19.20;99.90;;;;;;7280855;19;20264;-77
2024/04/07 01:12:38;;;;;;;10.53;2.20;;;19.20;99.90;;;;;;7280589;19;20288;-77
2024/04/07 01:15:06;;;;;;;10.97;2.20;;;19.20;99.90;;;;;;7279714;19;20189;-77
2024/04/07 01:17:32;;;;;;;9.70;2.00;;;19.20;99.90;;;;;;7302917;19;20780;-78
2024/04/07 01:19:59;;;;;;;8.73;1.93;;;19.20;99.90;;;;;;7281579;19;20185;-78
2024/04/07 01:22:26;;;;;;;8.77;1.90;;;19.20;99.90;;;;;;7281696;19;20198;-78
2024/04/07 01:24:51;;;;;;;10.30;2.20;;;19.20;99.90;;;;;;7279536;19;20266;-77
2024/04/07 01:27:17;;;;;;;11.70;2.00;;;19.20;99.90;;;;;;7280675;19;20581;-78
2024/04/07 01:29:43;;;;;;;9.83;1.90;;;19.30;99.90;;;;;;7278484;19;20566;-77
2024/04/07 01:32:09;;;;;;;8.77;1.80;;;19.30;99.90;;;;;;7280018;19;20226;-77
2024/04/07 01:34:34;;;;;;;8.47;1.80;;;19.30;99.90;;;;;;7286367;19;20195;-77
2024/04/07 01:37:00;;;;;;;14.27;2.00;;;19.40;99.90;;;;;;7303158;19;20688;-79
2024/04/07 01:39:26;;;;;;;8.67;1.80;;;19.40;99.90;;;;;;7287859;19;20181;-78
2024/04/07 01:41:52;;;;;;;10.07;1.77;;;19.30;99.90;;;;;;7287871;19;20195;-78
2024/04/07 01:44:17;;;;;;;6.27;1.40;;;19.30;99.90;;;;;;7285869;19;20212;-77
2024/04/07 01:46:43;;;;;;;8.47;1.50;;;19.20;99.90;;;;;;7288383;19;20197;-78
2024/04/07 01:49:09;;;;;;;5.33;1.33;;;19.20;99.90;;;;;;7287306;19;20212;-78
2024/04/07 01:51:35;;;;;;;6.07;1.10;;;19.10;99.90;;;;;;7290040;19;20320;-77
2024/04/07 01:54:00;;;;;;;3.93;0.90;;;18.90;99.90;;;;;;7307950;19;20208;-77
2024/04/07 01:56:26;;;;;;;4.37;0.87;;;18.70;99.90;;;;;;7285954;19;20205;-77
2024/04/07 01:58:52;;;;;;;3.97;0.77;;;18.70;99.90;;;;;;7286894;19;20215;-77
2024/04/07 02:01:18;;;;;;;4.27;0.80;;;18.60;99.90;;;;;;7286993;19;20260;-77
2024/04/07 02:03:43;;;;;;;4.37;0.67;;;18.50;99.90;;;;;;7286348;19;20800;-77
2024/04/07 02:06:09;;;;;;;3.93;1.13;;;18.40;99.90;;;;;;7286054;19;20199;-78
2024/04/07 02:08:38;;;;;;;5.37;0.90;;;18.40;99.90;;;;;;7288369;19;20182;-77
2024/04/07 02:11:04;;;;;;;2.97;0.60;;;18.30;99.90;;;;;;7298381;19;20194;-77
2024/04/07 02:13:30;;;;;;;4.43;0.90;;;18.30;99.90;;;;;;7303948;19;20192;-77
2024/04/07 02:15:59;;;;;;;2.97;0.70;;;18.20;99.90;;;;;;7288567;19;20902;-78
2024/04/07 02:18:26;;;;;;;2.57;0.80;;;18.10;99.90;;;;;;7285585;19;20212;-78
2024/04/07 02:20:53;;;;;;;4.70;0.77;;;18.20;99.90;;;;;;7285232;19;20605;-78
2024/04/07 02:23:19;;;;;;;1.97;0.50;;;18.10;99.90;;;;;;7286540;19;20196;-78
2024/04/07 02:25:49;;;;;;;2.20;0.60;;;18.10;99.90;;;;;;7287910;19;20189;-78
2024/04/07 02:28:16;;;;;;;2.57;0.77;;;18.00;99.90;;;;;;7287177;19;20212;-79
2024/04/07 02:30:42;;;;;;;2.80;0.73;;;17.90;99.90;;;;;;7284178;19;20522;-78
2024/04/07 02:33:08;;;;;;;1.97;0.77;;;17.90;99.90;;;;;;7284235;19;20188;-78
2024/04/07 02:35:37;;;;;;;4.93;0.70;;;17.80;99.90;;;;;;7300044;19;20200;-78
2024/04/07 02:38:03;;;;;;;1.80;0.60;;;17.70;99.90;;;;;;7307740;19;20189;-77
2024/04/07 02:40:28;;;;;;;1.67;0.50;;;17.70;99.90;;;;;;7283545;19;20176;-78
2024/04/07 02:42:54;;;;;;;2.70;0.77;;;17.70;99.90;;;;;;7285555;19;20174;-78
2024/04/07 02:48:06;;;;;;;2.90;0.70;;;17.70;99.90;;;;;;7274253;19;20191;-78
2024/04/07 02:50:32;;;;;;;3.70;0.60;;;17.60;99.90;;;;;;7304657;19;20206;-78
2024/04/07 02:52:58;;;;;;;5.60;0.70;;;17.50;99.90;;;;;;7287025;19;20203;-78
2024/04/07 02:55:24;;;;;;;3.03;0.63;;;17.30;99.90;;;;;;7286931;19;20603;-78
2024/04/07 02:57:50;;;;;;;3.20;0.70;;;17.20;99.90;;;;;;7285798;19;20245;-77
2024/04/07 03:00:16;;;;;;;2.63;0.50;;;17.20;99.90;;;;;;7283498;19;20263;-78
2024/04/07 03:02:44;;;;;;;5.70;0.83;;;17.20;99.90;;;;;;7286332;19;20196;-78
2024/04/07 03:05:11;;;;;;;3.07;0.60;;;17.20;99.90;;;;;;7285528;19;20526;-78
2024/04/07 03:07:37;;;;;;;4.07;0.53;;;17.20;99.90;;;;;;7282994;19;20201;-77
2024/04/07 03:10:04;;;;;;;2.83;0.60;;;17.10;99.90;;;;;;7305769;19;20268;-78
2024/04/07 03:12:30;;;;;;;3.03;0.60;;;17.10;99.90;;;;;;7286676;19;20184;-78
2024/04/07 03:14:57;;;;;;;4.87;0.87;;;17.10;99.90;;;;;;7283117;19;20197;-77
2024/04/07 03:17:23;;;;;;;2.60;0.60;;;17.00;99.90;;;;;;7280718;19;20181;-78
2024/04/07 03:19:49;;;;;;;2.30;0.57;;;16.90;99.90;;;;;;7282702;19;20193;-78
2024/04/07 03:22:14;;;;;;;4.07;0.67;;;16.70;99.90;;;;;;7282248;19;20651;-78
2024/04/07 03:24:40;;;;;;;4.47;0.70;;;16.70;99.90;;;;;;7283412;19;20205;-78
2024/04/07 03:27:06;;;;;;;2.77;0.50;;;16.70;99.90;;;;;;7282010;19;20241;-77
2024/04/07 03:29:32;;;;;;;3.50;0.60;;;16.80;99.90;;;;;;7305190;19;20197;-79
2024/04/07 03:31:58;;;;;;;3.80;0.60;;;16.80;99.90;;;;;;7284083;19;20647;-78
2024/04/07 03:34:24;;;;;;;3.60;0.50;;;16.80;99.90;;;;;;7282532;19;20215;-78
2024/04/07 03:36:50;;;;;;;1.23;0.40;;;16.60;99.90;;;;;;7280165;19;20948;-77
2024/04/07 03:39:16;;;;;;;6.53;1.20;;;16.60;99.90;;;;;;7284101;19;20209;-79
2024/04/07 03:41:43;;;;;;;6.10;0.73;;;16.60;99.90;;;;;;7283164;19;20187;-78
2024/04/07 03:44:10;;;;;;;1.47;0.60;;;16.70;99.90;;;;;;7283774;19;20188;-77
2024/04/07 03:46:37;;;;;;;2.80;0.60;;;16.60;99.90;;;;;;7280027;19;20188;-77
2024/04/07 03:49:03;;;;;;;3.27;0.60;;;16.50;99.90;;;;;;7305218;19;20284;-78
2024/04/07 03:51:29;;;;;;;3.03;0.60;;;16.50;99.90;;;;;;7284525;19;20807;-78
2024/04/07 03:53:55;;;;;;;5.03;0.70;;;16.30;99.90;;;;;;7279310;19;20215;-79
2024/04/07 03:56:21;;;;;;;4.83;0.90;;;16.30;99.90;;;;;;7282606;19;20184;-77
2024/04/07 03:58:46;;;;;;;2.87;0.60;;;16.40;99.90;;;;;;7283191;19;20195;-78
2024/04/07 04:01:15;;;;;;;2.90;0.60;;;16.30;99.90;;;;;;7282034;19;20196;-78
2024/04/07 04:03:43;;;;;;;2.83;0.60;;;16.30;99.90;;;;;;7280072;19;20186;-78
2024/04/07 04:06:10;;;;;;;3.47;0.77;;;16.30;99.90;;;;;;7283175;19;20193;-78
2024/04/07 04:08:36;;;;;;;3.53;0.70;;;16.40;99.90;;;;;;7283644;19;20811;-78
2024/04/07 04:11:03;;;;;;;5.60;0.87;;;16.40;99.90;;;;;;7304673;19;20196;-78
2024/04/07 04:13:29;;;;;;;2.83;0.70;;;16.40;99.90;;;;;;7282159;19;20797;-78
2024/04/07 04:15:55;;;;;;;5.27;0.87;;;16.40;99.90;;;;;;7282843;19;20293;-78
2024/04/07 04:18:21;;;;;;;6.17;0.90;;;16.30;99.90;;;;;;7284573;19;20184;-78
2024/04/07 04:20:47;;;;;;;4.20;0.80;;;16.30;99.90;;;;;;7282211;19;20538;-78
2024/04/07 04:23:12;;;;;;;4.13;0.90;;;16.30;99.90;;;;;;7281324;19;20701;-78
2024/04/07 04:25:38;;;;;;;4.23;0.90;;;16.40;99.90;;;;;;7284298;19;20335;-78
2024/04/07 04:28:05;;;;;;;3.80;0.80;;;16.30;99.90;;;;;;7301091;19;20194;-78
2024/04/07 04:30:31;;;;;;;2.03;0.67;;;16.40;99.90;;;;;;7301721;19;20693;-78
2024/04/07 04:32:59;;;;;;;3.17;0.77;;;16.40;99.90;;;;;;7279072;19;20256;-78
2024/04/07 04:35:25;;;;;;;5.37;0.90;;;16.40;99.90;;;;;;7282128;19;20181;-78
2024/04/07 04:37:50;;;;;;;2.27;0.80;;;16.40;99.90;;;;;;7284102;19;20698;-78
2024/04/07 04:40:16;;;;;;;3.37;0.80;;;16.40;99.90;;;;;;7282198;19;20205;-78
2024/04/07 04:42:42;;;;;;;3.67;0.87;;;16.40;99.90;;;;;;7280140;19;20528;-78
2024/04/07 04:45:08;;;;;;;5.37;1.00;;;16.50;99.90;;;;;;7282442;19;20741;-78
2024/04/07 04:47:34;;;;;;;5.50;0.90;;;16.40;99.90;;;;;;7304329;19;20185;-78
2024/04/07 04:50:01;;;;;;;4.90;0.83;;;16.40;99.90;;;;;;7291522;19;21063;-78
2024/04/07 04:52:30;;;;;;;4.27;1.20;;;16.30;99.90;;;;;;7281357;19;20188;-78
2024/04/07 04:54:59;;;;;;;2.47;1.00;;;16.40;99.90;;;;;;7282573;19;20288;-77
2024/04/07 04:57:25;;;;;;;5.73;1.00;;;16.30;99.90;;;;;;7282059;19;20182;-78
2024/04/07 04:59:53;;;;;;;4.20;1.03;;;16.30;99.90;;;;;;7281213;19;20180;-78
2024/04/07 05:02:19;;;;;;;4.33;1.03;;;16.30;99.90;;;;;;7281836;19;20214;-78
2024/04/07 05:04:46;;;;;;;4.03;0.80;;;16.40;99.90;;;;;;7283166;19;20185;-77
2024/04/07 05:07:11;;;;;;;4.23;1.00;;;16.40;99.90;;;;;;7281463;19;20193;-77
2024/04/07 05:09:37;;;;;;;4.53;1.00;;;16.30;99.90;;;;;;7278644;19;20613;-77
2024/04/07 05:12:03;;;;;;;6.07;1.07;;;16.30;99.90;;;;;;7304249;19;20193;-77
2024/04/07 05:14:29;;;;;;;9.07;1.00;;;16.30;99.90;;;;;;7288339;19;20180;-77
2024/04/07 05:16:55;;;;;;;6.17;1.20;;;16.30;99.90;;;;;;7287852;19;20649;-78
2024/04/07 05:19:21;;;;;;;8.67;1.30;;;16.40;99.90;;;;;;7287974;19;20184;-77
2024/04/07 05:21:47;;;;;;;7.70;1.50;;;16.40;99.90;;;;;;7286765;19;20184;-78
2024/04/07 05:24:13;;;;;;;5.00;1.10;;;16.40;99.90;;;;;;7288029;19;20239;-79
2024/04/07 05:26:39;;;;;;;4.90;1.37;;;16.50;99.90;;;;;;7287748;19;20756;-79
2024/04/07 05:29:04;;;;;;;5.07;1.30;;;16.40;99.90;;;;;;7300260;19;20195;-78
2024/04/07 05:31:31;;;;;;;5.23;1.20;;;16.40;99.90;;;;;;7303961;19;20551;-80
2024/04/07 05:33:57;;;;;;;5.90;1.20;;;16.40;99.90;;;;;;7287773;19;20695;-80
2024/04/07 05:36:23;;;;;;;5.13;1.13;;;16.40;99.90;;;;;;7286879;19;20192;-80
2024/04/07 05:38:49;;;;;;;5.80;1.23;;;16.40;99.90;;;;;;7288537;19;20215;-80
2024/04/07 05:41:15;;;;;;;6.00;1.00;;;16.50;99.90;;;;;;7290116;19;20269;-80
2024/04/07 05:43:40;;;;;;;4.70;1.17;;;16.60;99.90;;;;;;7287841;19;20188;-79
2024/04/07 05:46:08;;;;;;;6.70;1.17;;;16.70;99.90;;;;;;7286510;19;20574;-80
2024/04/07 05:48:35;;;;;;;6.17;1.17;;;16.70;99.90;;;;;;7307821;19;20248;-80
2024/04/07 05:51:03;;;;;;;7.07;1.57;;;16.70;99.90;;;;;;7288969;19;20188;-82
2024/04/07 05:53:29;;;;;;;10.67;1.23;;;16.70;99.90;;;;;;7288171;19;20189;-80
2024/04/07 05:55:55;;;;;;;8.17;1.30;;;16.70;99.90;;;;;;7283576;19;20200;-80
2024/04/07 05:58:22;;;;;;;4.67;1.20;;;16.70;99.90;;;;;;7286422;19;20195;-80
2024/04/07 06:00:48;;;;;;;6.13;1.17;;;16.70;99.90;;;;;;7288260;19;20208;-79
2024/04/07 06:03:13;;;;;;;6.33;1.20;;;16.70;99.90;;;;;;7287264;19;20564;-81
2024/04/07 06:05:39;;;;;;;6.00;1.20;;;16.70;99.90;;;;;;7284876;19;20211;-79
2024/04/07 06:08:07;;;;;;;6.70;1.23;;;16.80;99.90;;;;;;7293897;19;20649;-74
2024/04/07 06:10:35;;;;;;;6.97;1.10;;;17.10;99.90;;;;;;7305313;19;20189;-75
2024/04/07 06:13:02;;;;;;;6.47;1.27;;;17.20;99.90;;;;;;7280587;19;20189;-76
2024/04/07 06:15:29;;;;;;;5.77;1.13;;;17.30;99.90;;;;;;7281254;19;20287;-75
2024/04/07 06:17:55;;;;;;;4.07;1.20;;;17.40;99.90;;;;;;7283117;19;20235;-76
2024/04/07 06:20:20;;;;;;;4.90;1.10;;;17.30;99.90;;;;;;7282026;19;20188;-77
2024/04/07 06:22:46;;;;;;;5.10;1.20;;;17.20;99.90;;;;;;7278056;19;20193;-76
2024/04/07 06:25:12;;;;;;;6.30;1.47;;;17.20;99.90;;;;;;7279044;19;20185;-76
2024/04/07 06:27:38;;;;;;;6.47;1.30;;;17.20;99.90;;;;;;7283800;19;20181;-76
2024/04/07 06:30:04;;;;;;;4.37;1.20;;;17.20;99.90;;;;;;7305540;19;20201;-76
2024/04/07 06:32:30;;;;;;;8.23;1.30;;;17.20;99.90;;;;;;7279077;19;20189;-75
2024/04/07 06:34:57;;;;;;;6.63;1.30;;;17.20;99.90;;;;;;7280463;19;20458;-75
2024/04/07 06:37:24;;;;;;;6.50;1.00;;;17.20;99.90;;;;;;7281662;19;20605;-75
2024/04/07 06:39:50;;;;;;;3.13;0.90;;;17.20;99.90;;;;;;7282442;19;20223;-76
2024/04/07 06:42:30;;;;;;;5.97;1.20;;;17.30;99.90;;;;;;7277296;19;20189;-75
2024/04/07 06:44:59;;;;;;;4.43;1.10;;;17.10;99.90;;;;;;7280840;19;20184;-77
2024/04/07 06:47:25;;;;;;;4.03;0.83;;;17.10;99.90;;;;;;7280191;19;20206;-75
2024/04/07 06:49:52;;;;;;;5.17;0.90;;;17.60;99.90;;;;;;7280774;19;20197;-75
2024/04/07 06:52:19;;;;;;;5.60;1.00;;;18.70;99.90;;;;;;7278347;19;20724;-76
2024/04/07 06:54:45;;;;;;;8.30;1.20;;;19.90;99.90;;;;;;7282852;19;20188;-76
2024/04/07 06:57:13;;;;;;;4.67;1.33;;;21.00;99.90;;;;;;7281205;19;20190;-76
2024/04/07 06:59:39;;;;;;;5.97;1.00;;;20.80;99.90;;;;;;7279496;19;20188;-75
2024/04/07 07:02:04;;;;;;;5.30;1.17;;;21.50;99.90;;;;;;7297667;19;20186;-76
2024/04/07 07:04:30;;;;;;;6.10;1.10;;;21.90;99.90;;;;;;7292544;19;20189;-76
2024/04/07 07:06:56;;;;;;;5.13;1.10;;;23.00;99.90;;;;;;7281093;19;20185;-75
2024/04/07 07:09:22;;;;;;;5.33;1.07;;;23.20;99.90;;;;;;7278698;19;21005;-76
2024/04/07 07:11:48;;;;;;;5.33;0.97;;;24.00;99.90;;;;;;7278406;19;20201;-77
2024/04/07 07:14:14;;;;;;;5.27;1.13;;;24.10;99.90;;;;;;7279262;19;20188;-76
2024/04/07 07:16:40;;;;;;;7.90;1.00;;;23.60;99.90;;;;;;7278651;19;20218;-76
2024/04/07 07:19:05;;;;;;;6.57;1.17;;;23.70;99.90;;;;;;7286587;19;20304;-76
2024/04/07 07:21:31;;;;;;;6.95;1.35;;;24.50;99.90;;;;;;7298645;19;20185;-76
2024/04/07 07:23:57;;;;;;;3.65;0.82;;;24.70;99.90;;;;;;7281416;19;20698;-77
2024/04/07 07:26:22;;;;;;;6.55;1.13;;;24.80;99.90;;;;;;7280225;19;20280;-77
2024/04/07 07:28:48;;;;;;;6.18;1.10;;;25.20;99.90;;;;;;7277760;19;20222;-77
2024/04/07 07:31:15;;;;;;;4.38;0.93;;;25.00;99.90;;;;;;7279045;19;20668;-76
2024/04/07 07:33:41;;;;;;;4.30;1.08;;;24.90;99.90;;;;;;7279663;19;20181;-77
2024/04/07 07:36:07;;;;;;;3.15;0.85;;;25.70;99.90;;;;;;7280011;19;20996;-77
2024/04/07 07:38:33;;;;;;;6.00;0.88;;;25.60;99.90;;;;;;7299875;19;20196;-76
2024/04/07 07:40:59;;;;;;;3.83;1.02;;;25.50;99.90;;;;;;7279534;19;20192;-77
2024/04/07 07:43:25;;;;;;;4.40;1.25;;;25.60;99.90;;;;;;7280177;19;20205;-76
2024/04/07 07:45:51;;;;;;;5.53;1.08;;;26.10;99.90;;;;;;7279125;19;20185;-76
2024/04/07 07:48:17;;;;;;;4.40;0.93;;;26.00;99.90;;;;;;7275914;19;20188;-76
2024/04/07 07:50:43;;;;;;;5.05;1.00;;;26.20;99.90;;;;;;7281572;19;20220;-77
2024/04/07 07:53:10;;;;;;;5.63;1.10;;;26.10;99.90;;;;;;7278761;19;20180;-77
2024/04/07 07:55:36;;;;;;;6.53;1.30;;;26.50;99.90;;;;;;7287154;19;20181;-77
2024/04/07 07:58:02;;;;;;;4.70;1.02;;;27.20;99.90;;;;;;7300488;19;20181;-77
2024/04/07 08:00:29;;;;;;;5.65;1.10;;;27.50;99.90;;;;;;7281371;19;20207;-77
2024/04/07 08:02:55;;;;;;;6.95;1.40;;;26.90;99.90;;;;;;7279450;19;20205;-77
2024/04/07 08:05:21;;;;;;;6.47;1.20;;;26.50;99.90;;;;;;7276350;19;20209;-77
2024/04/07 08:07:47;;;;;;;5.22;1.25;;;26.20;99.90;;;;;;7278440;19;20210;-77
2024/04/07 08:10:13;;;;;;;5.95;1.75;;;26.10;99.90;;;;;;7280123;19;20252;-77
2024/04/07 08:12:40;;;;;;;8.75;3.10;;;26.50;99.90;;;;;;7279627;19;20193;-77
2024/04/07 08:15:08;;;;;;;4.82;2.63;;;27.00;99.90;;;;;;7280237;19;20189;-76
2024/04/07 08:17:33;;;;;;;7.20;2.53;;;27.70;99.90;;;;;;7301632;19;20196;-77
2024/04/07 08:19:59;;;;;;;4.65;1.20;;;28.50;99.90;;;;;;7278858;19;20646;-76
2024/04/07 08:22:26;;;;;;;5.32;1.10;;;28.40;99.90;;;;;;7276970;19;20194;-76
2024/04/07 08:24:52;;;;;;;5.88;1.10;;;27.50;99.90;;;;;;7278195;19;20197;-76
2024/04/07 08:27:19;;;;;;;4.90;1.00;;;27.30;99.90;;;;;;7277809;19;20539;-76
2024/04/07 08:29:45;;;;;;;5.05;1.33;;;27.00;99.90;;;;;;7278299;19;20651;-76
2024/04/07 08:32:11;;;;;;;5.10;0.93;;;27.20;99.90;;;;;;7278697;19;20207;-77
2024/04/07 08:34:36;;;;;;;4.80;1.00;;;28.00;99.90;;;;;;7275367;19;20192;-76
2024/04/07 08:37:03;;;;;;;6.65;1.10;;;26.70;99.90;;;;;;7301121;19;20208;-77
2024/04/07 08:39:29;;;;;;;5.55;1.20;;;27.00;99.90;;;;;;7280381;19;20240;-76
2024/04/07 08:41:58;;;;;;;7.20;1.10;;;26.90;99.90;;;;;;7277534;19;20285;-77
2024/04/07 08:44:25;;;;;;;3.88;0.93;;;27.70;99.90;;;;;;7276049;19;20196;-76
2024/04/07 08:46:52;;;;;;;4.90;1.00;;;28.20;99.90;;;;;;7275560;19;20193;-76
2024/04/07 08:49:18;;;;;;;6.30;1.33;;;27.30;99.90;;;;;;7279530;19;20252;-77
2024/04/07 08:51:46;;;;;;;6.18;1.30;;;26.90;99.90;;;;;;7276972;19;20189;-77
2024/04/07 08:54:13;;;;;;;5.43;1.00;;;26.50;99.90;;;;;;7276855;19;20193;-76
2024/04/07 08:56:39;;;;;;;6.78;1.05;;;25.90;99.90;;;;;;7279157;19;20188;-76
2024/04/07 08:59:08;;;;;;;6.63;1.10;;;26.40;99.90;;;;;;7302353;19;20206;-77
2024/04/07 09:01:37;;;;;;;5.13;1.00;;;27.20;99.90;;;;;;7278431;19;20213;-76
2024/04/07 09:04:02;;;;;;;4.82;0.88;;;26.10;99.90;;;;;;7278037;19;20600;-76
2024/04/07 09:06:29;;;;;;;5.93;1.17;;;26.10;99.90;;;;;;7280012;19;20192;-76
2024/04/07 09:08:58;;;;;;;5.53;1.35;;;26.60;99.90;;;;;;7279721;19;20198;-76
2024/04/07 09:11:27;;;;;;;4.57;1.00;;;26.80;99.90;;;;;;7276128;19;20275;-76
2024/04/07 09:13:53;;;;;;;5.78;1.00;;;27.80;99.90;;;;;;7275509;19;20197;-76
2024/04/07 09:16:18;;;;;;;3.45;0.90;;;27.80;99.90;;;;;;7279192;19;20660;-76
2024/04/07 09:18:46;;;;;;;3.33;1.00;;;27.70;99.90;;;;;;7278394;19;20216;-76
2024/04/07 09:21:19;;;;;;;3.97;0.98;;;27.60;99.90;;;;;;7275316;19;20188;-77
2024/04/07 09:23:49;;;;;;;4.38;1.00;;;26.70;99.90;;;;;;7276508;19;20678;-76
2024/04/07 09:26:16;;;;;;;5.40;1.05;;;26.60;99.90;;;;;;7278131;19;20230;-76
2024/04/07 09:28:43;;;;;;;4.18;1.00;;;25.70;99.90;;;;;;7277357;19;20185;-76
2024/04/07 09:31:08;;;;;;;4.47;1.13;;;25.20;99.90;;;;;;7274834;19;20204;-77
2024/04/07 09:33:35;;;;;;;3.25;0.80;;;25.00;99.90;;;;;;7299315;19;20189;-76
2024/04/07 09:36:02;;;;;;;4.93;1.00;;;23.70;99.90;;;;;;7279116;19;20193;-77
2024/04/07 09:38:28;;;;;;;6.40;1.00;;;23.40;99.90;;;;;;7276022;19;20193;-76
2024/04/07 09:41:00;;;;;;;7.13;1.00;;;23.50;99.90;;;;;;7275101;19;20533;-76
2024/04/07 09:43:27;;;;;;;3.97;0.87;;;23.30;99.90;;;;;;7276167;19;20653;-76
2024/04/07 09:45:54;;;;;;;4.20;0.80;;;23.10;99.90;;;;;;7276414;19;20193;-76
2024/04/07 09:48:21;;;;;;;4.70;1.00;;;23.00;99.90;;;;;;7274992;19;20192;-76
2024/04/07 09:50:59;;;;;;;3.17;1.03;;;23.80;99.90;;;;;;7276502;19;20988;-76
2024/04/07 09:53:58;;;;;;;4.80;0.77;;;24.80;99.90;;;;;;7277791;19;21527;-76
2024/04/07 09:56:37;;;;;;;4.60;0.95;;;26.00;99.90;;;;;;7174413;19;2004560;-78
2024/04/07 09:59:05;;;;;;;3.05;0.90;;;26.60;99.90;;;;;;7279852;19;20195;-77
2024/04/07 10:01:31;;;;;;;3.75;0.80;;;26.90;99.90;;;;;;7284721;19;20284;-76
2024/04/07 10:03:58;;;;;;;5.13;1.10;;;28.80;99.90;;;;;;7283905;19;20268;-76
2024/04/07 10:06:25;;;;;;;4.60;1.23;;;27.90;99.90;;;;;;7281443;19;20200;-77
2024/04/07 10:08:51;;;;;;;4.30;0.90;;;28.20;99.90;;;;;;7282735;19;20193;-77
2024/04/07 10:11:18;;;;;;;3.00;0.80;;;28.90;98.50;;;;;;7284334;19;20540;-77
2024/04/07 10:13:45;;;;;;;4.07;1.00;;;28.60;98.00;;;;;;7283083;19;20688;-77
2024/04/07 10:16:13;;;;;;;4.63;1.10;;;28.10;98.50;;;;;;7281538;19;20647;-78
2024/04/07 10:18:41;;;;;;;3.25;0.88;;;27.60;99.70;;;;;;7283513;19;20184;-77
2024/04/07 10:21:09;;;;;;;3.90;1.00;;;27.60;99.30;;;;;;7283207;19;20192;-77
2024/04/07 10:23:36;;;;;;;3.95;0.80;;;27.10;99.40;;;;;;7304890;19;20204;-77
2024/04/07 10:26:03;;;;;;;3.03;0.90;;;27.60;99.30;;;;;;7281228;19;20190;-77
2024/04/07 10:28:53;;;;;;;4.40;0.90;;;28.40;99.40;;;;;;7282486;19;20188;-76
2024/04/07 10:31:38;;;;;;;4.18;0.93;;;28.70;97.20;;;;;;7183240;19;2004535;-76
2024/04/07 10:34:04;;;;;;;4.15;0.80;;;28.90;96.10;;;;;;7283598;19;20180;-76
2024/04/07 10:36:34;;;;;;;3.30;0.57;;;28.90;95.70;;;;;;7282988;19;20675;-77
2024/04/07 10:39:00;;;;;;;4.65;0.93;;;28.80;95.10;;;;;;7283868;19;20200;-77
2024/04/07 10:41:31;;;;;;;2.33;0.80;;;29.10;94.20;;;;;;7283173;19;20200;-76
2024/04/07 10:43:59;;;;;;;3.92;1.02;;;29.30;92.90;;;;;;7279773;19;20209;-78
2024/04/07 10:46:25;;;;;;;3.53;1.00;;;29.70;93.00;;;;;;7283231;19;20644;-77
2024/04/07 10:48:55;;;;;;;2.83;0.73;;;29.70;93.30;;;;;;7283164;19;20185;-77
2024/04/07 10:51:21;;;;;;;5.63;1.23;;;29.40;92.10;;;;;;7282445;19;20652;-77
2024/04/07 10:54:00;;;;;;;4.95;0.80;;;28.70;91.80;;;;;;7279106;19;20220;-77
2024/04/07 10:56:26;;;;;;;3.40;0.82;;;28.90;92.60;;;;;;7280310;19;20209;-77
2024/04/07 10:58:52;;;;;;;2.40;0.60;;;29.10;91.50;;;;;;7283951;19;20193;-77
2024/04/07 11:01:18;;;;;;;3.60;1.10;;;29.30;91.50;;;;;;7283839;19;20181;-77
2024/04/07 11:03:45;;;;;;;3.33;0.80;;;29.40;92.10;;;;;;7280188;19;20204;-76
2024/04/07 11:06:13;;;;;;;6.20;1.13;;;28.60;90.90;;;;;;7281599;19;20203;-76
2024/04/07 11:08:40;;;;;;;5.35;1.25;;;29.40;92.40;;;;;;7280581;19;20189;-76
2024/04/07 11:11:06;;;;;;;3.13;0.63;;;29.90;89.40;;;;;;7294421;19;20188;-76
2024/04/07 11:13:34;;;;;;;3.50;0.90;;;29.80;90.00;;;;;;7300111;19;20209;-76
2024/04/07 11:15:59;;;;;;;2.60;0.80;;;30.10;86.70;;;;;;7282822;19;20688;-76
2024/04/07 11:18:25;;;;;;;2.75;0.60;;;31.00;86.80;;;;;;7283859;19;20261;-76
2024/04/07 11:20:53;;;;;;;4.75;0.90;;;30.40;83.50;;;;;;7282099;19;20184;-76
2024/04/07 11:23:19;;;;;;;2.85;1.08;;;30.00;83.90;;;;;;7279087;19;20189;-76
2024/04/07 11:25:47;;;;;;;3.53;0.90;;;30.10;84.10;;;;;;7282052;19;20193;-75
2024/04/07 11:28:14;;;;;;;3.58;0.57;;;30.50;82.00;;;;;;7282583;19;20193;-76
2024/04/07 11:30:48;;;;;;;1.70;0.50;;;29.30;81.40;;;;;;7277589;19;20201;-75
2024/04/07 11:33:15;;;;;;;3.92;1.08;;;28.70;84.90;;;;;;7280255;19;20186;-76
2024/04/07 11:35:44;;;;;;;3.17;0.52;;;29.00;85.00;;;;;;7281600;19;20205;-76
2024/04/07 11:38:13;;;;;;;2.67;0.57;;;29.20;82.20;;;;;;7281808;19;20189;-76
2024/04/07 11:40:39;;;;;;;1.55;0.45;;;28.70;82.50;;;;;;7278133;19;20277;-75
2024/04/07 11:43:07;;;;;;;2.97;0.80;;;28.30;84.80;;;;;;7301515;19;20193;-76
2024/04/07 11:45:32;;;;;;;1.92;0.60;;;27.50;84.80;;;;;;7305076;19;20193;-76
2024/04/07 11:47:59;;;;;;;3.38;0.60;;;27.40;84.00;;;;;;7282309;19;20203;-76
2024/04/07 11:50:25;;;;;;;2.65;0.70;;;27.60;85.10;;;;;;7276638;19;20228;-76
2024/04/07 11:52:50;;;;;;;3.70;0.77;;;27.10;85.20;;;;;;7279487;19;20220;-76
2024/04/07 11:55:17;;;;;;;2.75;1.00;;;27.40;85.30;;;;;;7278561;19;20193;-76
2024/04/07 11:57:42;;;;;;;4.25;0.60;;;27.90;84.40;;;;;;7279439;19;20192;-77
2024/04/07 12:00:09;;;;;;;3.03;0.60;;;28.00;83.20;;;;;;7278112;19;20229;-75
2024/04/07 12:02:38;;;;;;;1.58;0.50;;;27.40;83.30;;;;;;7281390;19;20742;-76
2024/04/07 12:05:06;;;;;;;2.20;0.60;;;27.80;85.60;;;;;;7301177;19;20176;-77
2024/04/07 12:07:31;;;;;;;3.05;0.70;;;27.40;83.40;;;;;;7280903;19;20194;-76
2024/04/07 12:09:58;;;;;;;2.33;0.60;;;27.50;83.60;;;;;;7278528;19;20189;-76
2024/04/07 12:12:25;;;;;;;2.25;0.52;;;28.20;85.60;;;;;;7280662;19;20195;-76
2024/04/07 12:14:51;;;;;;;2.42;0.52;;;27.30;82.50;;;;;;7279539;19;20197;-76
2024/04/07 12:17:17;;;;;;;2.90;0.52;;;27.20;82.80;;;;;;7277403;19;20200;-76
2024/04/07 12:19:43;;;;;;;3.05;0.73;;;26.70;85.10;;;;;;7277543;19;20185;-76
2024/04/07 12:22:17;;;;;;;1.95;0.50;;;26.90;86.50;;;;;;7278794;19;20643;-75
2024/04/07 12:24:44;;;;;;;3.20;0.50;;;27.30;85.70;;;;;;7278854;19;20208;-76
2024/04/07 12:27:10;;;;;;;2.63;0.68;;;27.50;83.20;;;;;;7275730;19;20207;-76
2024/04/07 12:29:37;;;;;;;2.72;0.55;;;28.00;85.00;;;;;;7292579;19;20256;-76
2024/04/07 12:32:03;;;;;;;3.03;0.70;;;28.40;82.50;;;;;;7300553;19;20193;-76
2024/04/07 12:34:29;;;;;;;0.85;0.40;;;27.90;81.00;;;;;;7276550;19;20184;-76
2024/04/07 12:36:55;;;;;;;2.97;0.63;;;28.10;83.60;;;;;;7276829;19;20221;-76
2024/04/07 12:39:21;;;;;;;2.67;0.80;;;27.40;83.10;;;;;;7278098;19;20260;-76
2024/04/07 12:41:49;;;;;;;2.33;0.55;;;26.60;84.50;;;;;;7278919;19;20304;-76
2024/04/07 12:44:16;;;;;;;1.38;0.47;;;25.60;85.70;;;;;;7277471;19;20648;-76
2024/04/07 12:46:44;;;;;;;0.98;0.40;;;25.20;87.50;;;;;;7275804;19;20613;-76